Terminal Aerodrome Forecast
Issued by NWS

Home | Current Version | Previous Version | Graphics & Text | Print | Product List | Glossary On
Versions: 1 2 3 4 5 6 7 8 9 10 11 12 13 14 15 16 17 18 19
000
FTUS43 KGRB 281400 AAA
TAFATW
TAF AMD
KATW 281422Z 2814/2912 26014G20KT P6SM SCT080
     FM281500 25016G25KT P6SM SCT015 BKN050
      TEMPO 2815/2819 BKN015
     FM281900 25018G28KT P6SM SCT020 BKN050
     FM290000 26014G22KT P6SM OVC035=

USA.gov is the U.S. government's official web portal to all federal, state and local government web resources and services.